sensor_id;sensor_type;location;lat;lon;timestamp;pressure;altitude;pressure_sealevel;temperature;humidity
5062;BME280;2351;50.812;12.872;2023-09-19T00:02:10;97174.16;;;15.91;100.00
5062;BME280;2351;50.812;12.872;2023-09-19T00:04:42;97182.00;;;15.92;100.00
5062;BME280;2351;50.812;12.872;2023-09-19T00:07:13;97188.97;;;15.93;100.00
5062;BME280;2351;50.812;12.872;2023-09-19T00:09:46;97187.97;;;15.94;100.00
5062;BME280;2351;50.812;12.872;2023-09-19T00:12:20;97198.44;;;15.96;100.00
5062;BME280;2351;50.812;12.872;2023-09-19T00:14:51;97195.59;;;15.98;100.00
5062;BME280;2351;50.812;12.872;2023-09-19T00:17:23;97183.09;;;15.98;100.00
5062;BME280;2351;50.812;12.872;2023-09-19T00:19:55;97180.25;;;16.00;100.00
5062;BME280;2351;50.812;12.872;2023-09-19T00:22:27;97161.63;;;16.06;100.00
5062;BME280;2351;50.812;12.872;2023-09-19T00:24:58;97170.94;;;16.10;100.00
5062;BME280;2351;50.812;12.872;2023-09-19T00:27:32;97176.06;;;16.12;100.00
5062;BME280;2351;50.812;12.872;2023-09-19T00:30:06;97176.72;;;16.14;100.00
5062;BME280;2351;50.812;12.872;2023-09-19T00:32:44;97177.47;;;16.08;100.00
5062;BME280;2351;50.812;12.872;2023-09-19T00:35:17;97178.75;;;16.12;100.00
5062;BME280;2351;50.812;12.872;2023-09-19T00:37:50;97174.22;;;16.13;100.00
5062;BME280;2351;50.812;12.872;2023-09-19T00:40:22;97174.41;;;16.11;100.00
5062;BME280;2351;50.812;12.872;2023-09-19T00:42:57;97186.38;;;16.15;100.00
5062;BME280;2351;50.812;12.872;2023-09-19T00:45:30;97187.28;;;16.22;100.00
5062;BME280;2351;50.812;12.872;2023-09-19T00:48:03;97189.94;;;16.22;100.00
5062;BME280;2351;50.812;12.872;2023-09-19T00:50:42;97187.66;;;16.19;100.00
5062;BME280;2351;50.812;12.872;2023-09-19T00:53:18;97184.44;;;16.24;100.00
5062;BME280;2351;50.812;12.872;2023-09-19T00:55:51;97185.25;;;16.24;100.00
5062;BME280;2351;50.812;12.872;2023-09-19T00:58:24;97178.81;;;16.19;100.00
5062;BME280;2351;50.812;12.872;2023-09-19T01:00:56;97173.69;;;16.17;100.00
5062;BME280;2351;50.812;12.872;2023-09-19T01:03:31;97180.31;;;16.21;100.00
5062;BME280;2351;50.812;12.872;2023-09-19T01:06:02;97192.63;;;16.22;100.00
5062;BME280;2351;50.812;12.872;2023-09-19T01:08:34;97183.50;;;16.17;100.00
5062;BME280;2351;50.812;12.872;2023-09-19T01:11:13;97191.53;;;16.17;100.00
5062;BME280;2351;50.812;12.872;2023-09-19T01:13:55;97179.09;;;16.24;100.00
5062;BME280;2351;50.812;12.872;2023-09-19T01:16:32;97192.63;;;16.22;100.00
5062;BME280;2351;50.812;12.872;2023-09-19T01:19:26;97191.78;;;16.22;100.00
5062;BME280;2351;50.812;12.872;2023-09-19T01:22:11;97198.78;;;16.23;100.00
5062;BME280;2351;50.812;12.872;2023-09-19T01:28:20;97211.50;;;16.21;100.00
5062;BME280;2351;50.812;12.872;2023-09-19T01:30:57;97213.97;;;16.22;100.00
5062;BME280;2351;50.812;12.872;2023-09-19T01:33:53;97211.50;;;16.21;100.00
5062;BME280;2351;50.812;12.872;2023-09-19T01:36:29;97210.03;;;16.18;100.00
5062;BME280;2351;50.812;12.872;2023-09-19T01:39:01;97205.72;;;16.17;100.00
5062;BME280;2351;50.812;12.872;2023-09-19T01:41:47;97193.38;;;16.16;100.00
5062;BME280;2351;50.812;12.872;2023-09-19T01:44:25;97207.53;;;16.17;100.00
5062;BME280;2351;50.812;12.872;2023-09-19T01:47:04;97200.53;;;16.16;100.00
5062;BME280;2351;50.812;12.872;2023-09-19T01:49:44;97209.75;;;16.13;100.00
5062;BME280;2351;50.812;12.872;2023-09-19T01:52:19;97211.78;;;16.11;100.00
5062;BME280;2351;50.812;12.872;2023-09-19T01:54:55;97215.47;;;16.10;100.00
5062;BME280;2351;50.812;12.872;2023-09-19T01:57:32;97220.34;;;16.06;100.00
5062;BME280;2351;50.812;12.872;2023-09-19T02:00:08;97219.16;;;16.09;100.00
5062;BME280;2351;50.812;12.872;2023-09-19T02:02:45;97218.34;;;16.08;100.00
5062;BME280;2351;50.812;12.872;2023-09-19T02:05:25;97216.31;;;16.10;100.00
5062;BME280;2351;50.812;12.872;2023-09-19T02:07:57;97215.03;;;16.06;100.00
5062;BME280;2351;50.812;12.872;2023-09-19T02:10:29;97224.03;;;16.05;100.00
5062;BME280;2351;50.812;12.872;2023-09-19T02:13:01;97225.22;;;16.03;100.00
5062;BME280;2351;50.812;12.872;2023-09-19T02:15:34;97227.06;;;16.02;100.00
5062;BME280;2351;50.812;12.872;2023-09-19T02:18:09;97230.94;;;16.00;100.00
5062;BME280;2351;50.812;12.872;2023-09-19T02:20:41;97229.91;;;16.01;100.00
5062;BME280;2351;50.812;12.872;2023-09-19T02:23:13;97227.44;;;15.99;100.00
5062;BME280;2351;50.812;12.872;2023-09-19T02:25:52;97224.75;;;15.99;100.00
5062;BME280;2351;50.812;12.872;2023-09-19T02:28:23;97229.66;;;15.95;100.00
5062;BME280;2351;50.812;12.872;2023-09-19T02:31:00;97230.81;;;15.93;100.00
5062;BME280;2351;50.812;12.872;2023-09-19T02:33:33;97234.50;;;15.92;100.00
5062;BME280;2351;50.812;12.872;2023-09-19T02:36:06;97240.03;;;15.90;100.00
5062;BME280;2351;50.812;12.872;2023-09-19T02:38:39;97239.19;;;15.90;100.00
5062;BME280;2351;50.812;12.872;2023-09-19T02:41:11;97249.06;;;15.89;100.00
5062;BME280;2351;50.812;12.872;2023-09-19T02:43:43;97252.09;;;15.86;100.00
5062;BME280;2351;50.812;12.872;2023-09-19T02:46:15;97252.25;;;15.85;100.00
5062;BME280;2351;50.812;12.872;2023-09-19T02:48:49;97263.09;;;15.83;100.00
5062;BME280;2351;50.812;12.872;2023-09-19T02:51:20;97257.75;;;15.83;100.00
5062;BME280;2351;50.812;12.872;2023-09-19T02:53:52;97263.94;;;15.84;100.00
5062;BME280;2351;50.812;12.872;2023-09-19T02:56:25;97268.41;;;15.83;100.00
5062;BME280;2351;50.812;12.872;2023-09-19T02:58:57;97272.66;;;15.77;100.00
5062;BME280;2351;50.812;12.872;2023-09-19T03:01:31;97269.34;;;15.75;100.00
5062;BME280;2351;50.812;12.872;2023-09-19T03:04:04;97273.84;;;15.75;100.00
5062;BME280;2351;50.812;12.872;2023-09-19T03:06:41;97286.34;;;15.74;100.00
5062;BME280;2351;50.812;12.872;2023-09-19T03:09:15;97281.22;;;15.73;100.00
5062;BME280;2351;50.812;12.872;2023-09-19T03:11:47;97287.91;;;15.69;100.00
5062;BME280;2351;50.812;12.872;2023-09-19T03:14:19;97293.25;;;15.69;100.00
5062;BME280;2351;50.812;12.872;2023-09-19T03:16:51;97298.75;;;15.67;100.00
5062;BME280;2351;50.812;12.872;2023-09-19T03:19:24;97288.06;;;15.67;100.00
5062;BME280;2351;50.812;12.872;2023-09-19T03:21:56;97282.56;;;15.69;100.00
5062;BME280;2351;50.812;12.872;2023-09-19T03:24:29;97289.13;;;15.66;100.00
5062;BME280;2351;50.812;12.872;2023-09-19T03:27:02;97290.28;;;15.63;100.00
5062;BME280;2351;50.812;12.872;2023-09-19T03:29:34;97291.94;;;15.64;100.00
5062;BME280;2351;50.812;12.872;2023-09-19T03:32:06;97294.81;;;15.63;100.00
5062;BME280;2351;50.812;12.872;2023-09-19T03:34:41;97301.16;;;15.62;100.00
5062;BME280;2351;50.812;12.872;2023-09-19T03:37:14;97305.81;;;15.60;100.00
5062;BME280;2351;50.812;12.872;2023-09-19T03:39:46;97306.19;;;15.57;100.00
5062;BME280;2351;50.812;12.872;2023-09-19T03:42:18;97304.53;;;15.56;100.00
5062;BME280;2351;50.812;12.872;2023-09-19T03:44:55;97297.72;;;15.53;100.00
5062;BME280;2351;50.812;12.872;2023-09-19T03:47:27;97291.38;;;15.54;100.00
5062;BME280;2351;50.812;12.872;2023-09-19T03:50:00;97293.56;;;15.50;100.00
5062;BME280;2351;50.812;12.872;2023-09-19T03:52:33;97290.59;;;15.45;100.00
5062;BME280;2351;50.812;12.872;2023-09-19T03:55:04;97285.44;;;15.44;100.00
5062;BME280;2351;50.812;12.872;2023-09-19T03:57:36;97287.31;;;15.43;100.00
5062;BME280;2351;50.812;12.872;2023-09-19T04:00:09;97284.63;;;15.43;100.00
5062;BME280;2351;50.812;12.872;2023-09-19T04:02:41;97278.00;;;15.39;100.00
5062;BME280;2351;50.812;12.872;2023-09-19T04:05:14;97283.13;;;15.41;100.00
5062;BME280;2351;50.812;12.872;2023-09-19T04:07:46;97285.34;;;15.37;100.00
5062;BME280;2351;50.812;12.872;2023-09-19T04:10:18;97286.00;;;15.39;100.00
5062;BME280;2351;50.812;12.872;2023-09-19T04:12:50;97284.50;;;15.36;100.00
5062;BME280;2351;50.812;12.872;2023-09-19T04:15:23;97284.69;;;15.35;100.00
5062;BME280;2351;50.812;12.872;2023-09-19T04:17:55;97294.34;;;15.36;100.00
5062;BME280;2351;50.812;12.872;2023-09-19T04:20:28;97310.50;;;15.34;100.00
5062;BME280;2351;50.812;12.872;2023-09-19T04:23:00;97314.00;;;15.35;100.00
5062;BME280;2351;50.812;12.872;2023-09-19T04:25:32;97324.03;;;15.33;100.00
5062;BME280;2351;50.812;12.872;2023-09-19T04:28:04;97311.53;;;15.33;100.00
5062;BME280;2351;50.812;12.872;2023-09-19T04:30:36;97316.03;;;15.33;100.00
5062;BME280;2351;50.812;12.872;2023-09-19T04:33:10;97325.88;;;15.32;100.00
5062;BME280;2351;50.812;12.872;2023-09-19T04:35:49;97334.03;;;15.31;100.00
5062;BME280;2351;50.812;12.872;2023-09-19T04:38:21;97329.06;;;15.28;100.00
5062;BME280;2351;50.812;12.872;2023-09-19T04:40:56;97339.56;;;15.29;100.00
5062;BME280;2351;50.812;12.872;2023-09-19T04:43:29;97347.22;;;15.32;100.00
5062;BME280;2351;50.812;12.872;2023-09-19T04:46:01;97344.53;;;15.32;100.00
5062;BME280;2351;50.812;12.872;2023-09-19T04:48:33;97345.34;;;15.33;100.00
5062;BME280;2351;50.812;12.872;2023-09-19T04:51:07;97351.16;;;15.36;100.00
5062;BME280;2351;50.812;12.872;2023-09-19T04:53:39;97347.47;;;15.38;100.00
5062;BME280;2351;50.812;12.872;2023-09-19T04:56:11;97353.81;;;15.36;100.00
5062;BME280;2351;50.812;12.872;2023-09-19T04:58:43;97348.13;;;15.40;100.00
5062;BME280;2351;50.812;12.872;2023-09-19T05:01:15;97346.47;;;15.39;100.00
5062;BME280;2351;50.812;12.872;2023-09-19T05:03:48;97346.47;;;15.39;100.00
5062;BME280;2351;50.812;12.872;2023-09-19T05:06:24;97353.47;;;15.40;100.00
5062;BME280;2351;50.812;12.872;2023-09-19T05:08:57;97364.31;;;15.38;100.00
5062;BME280;2351;50.812;12.872;2023-09-19T05:11:29;97359.00;;;15.38;100.00
5062;BME280;2351;50.812;12.872;2023-09-19T05:14:01;97363.31;;;15.39;100.00
5062;BME280;2351;50.812;12.872;2023-09-19T05:16:34;97367.81;;;15.39;100.00
5062;BME280;2351;50.812;12.872;2023-09-19T05:19:06;97368.66;;;15.39;100.00
5062;BME280;2351;50.812;12.872;2023-09-19T05:21:39;97371.47;;;15.38;100.00
5062;BME280;2351;50.812;12.872;2023-09-19T05:24:11;97375.16;;;15.36;100.00
5062;BME280;2351;50.812;12.872;2023-09-19T05:26:44;97381.31;;;15.37;100.00
5062;BME280;2351;50.812;12.872;2023-09-19T05:29:16;97379.66;;;15.36;100.00
5062;BME280;2351;50.812;12.872;2023-09-19T05:31:48;97378.66;;;15.37;100.00
5062;BME280;2351;50.812;12.872;2023-09-19T05:34:20;97386.31;;;15.40;100.00
5062;BME280;2351;50.812;12.872;2023-09-19T05:36:53;97392.47;;;15.41;100.00
5062;BME280;2351;50.812;12.872;2023-09-19T05:39:24;97390.63;;;15.41;100.00
5062;BME280;2351;50.812;12.872;2023-09-19T05:41:56;97394.13;;;15.42;100.00
5062;BME280;2351;50.812;12.872;2023-09-19T05:44:28;97393.09;;;15.43;100.00
5062;BME280;2351;50.812;12.872;2023-09-19T05:47:00;97398.09;;;15.46;100.00
5062;BME280;2351;50.812;12.872;2023-09-19T05:49:31;97396.09;;;15.48;100.00
5062;BME280;2351;50.812;12.872;2023-09-19T05:52:05;97399.41;;;15.50;100.00
5062;BME280;2351;50.812;12.872;2023-09-19T05:54:37;97399.41;;;15.50;100.00
5062;BME280;2351;50.812;12.872;2023-09-19T05:57:07;97403.72;;;15.51;100.00
5062;BME280;2351;50.812;12.872;2023-09-19T05:59:42;97409.06;;;15.51;100.00
5062;BME280;2351;50.812;12.872;2023-09-19T06:02:14;97413.22;;;15.54;100.00
5062;BME280;2351;50.812;12.872;2023-09-19T06:04:46;97416.53;;;15.56;100.00
5062;BME280;2351;50.812;12.872;2023-09-19T06:07:19;97417.00;;;15.59;100.00
5062;BME280;2351;50.812;12.872;2023-09-19T06:09:52;97417.84;;;15.60;100.00
5062;BME280;2351;50.812;12.872;2023-09-19T06:12:25;97421.97;;;15.62;100.00
5062;BME280;2351;50.812;12.872;2023-09-19T06:14:56;97420.81;;;15.65;100.00
5062;BME280;2351;50.812;12.872;2023-09-19T06:17:29;97421.63;;;15.65;100.00
5062;BME280;2351;50.812;12.872;2023-09-19T06:20:01;97425.75;;;15.68;100.00
5062;BME280;2351;50.812;12.872;2023-09-19T06:22:36;97428.28;;;15.70;100.00
5062;BME280;2351;50.812;12.872;2023-09-19T06:25:09;97424.59;;;15.71;100.00
5062;BME280;2351;50.812;12.872;2023-09-19T06:27:42;97436.75;;;15.73;100.00
5062;BME280;2351;50.812;12.872;2023-09-19T06:30:14;97432.06;;;15.75;100.00
5062;BME280;2351;50.812;12.872;2023-09-19T06:32:47;97441.38;;;15.79;100.00
5062;BME280;2351;50.812;12.872;2023-09-19T06:35:20;97435.84;;;15.81;100.00
5062;BME280;2351;50.812;12.872;2023-09-19T06:37:53;97442.84;;;15.82;100.00
5062;BME280;2351;50.812;12.872;2023-09-19T06:40:28;97441.03;;;15.82;100.00
5062;BME280;2351;50.812;12.872;2023-09-19T06:43:01;97449.84;;;15.83;100.00
5062;BME280;2351;50.812;12.872;2023-09-19T06:45:34;97444.19;;;15.86;100.00
5062;BME280;2351;50.812;12.872;2023-09-19T06:48:06;97447.84;;;15.85;100.00
5062;BME280;2351;50.812;12.872;2023-09-19T06:50:39;97444.03;;;15.88;100.00
5062;BME280;2351;50.812;12.872;2023-09-19T06:53:13;97446.97;;;15.93;100.00
5062;BME280;2351;50.812;12.872;2023-09-19T06:55:45;97460.81;;;15.96;100.00
5062;BME280;2351;50.812;12.872;2023-09-19T06:58:18;97461.91;;;16.02;100.00
5062;BME280;2351;50.812;12.872;2023-09-19T07:00:50;97461.38;;;16.07;100.00
5062;BME280;2351;50.812;12.872;2023-09-19T07:03:22;97466.47;;;16.17;100.00
5062;BME280;2351;50.812;12.872;2023-09-19T07:05:57;97467.06;;;16.27;100.00
5062;BME280;2351;50.812;12.872;2023-09-19T07:08:30;97463.13;;;16.38;100.00
5062;BME280;2351;50.812;12.872;2023-09-19T07:11:02;97456.22;;;16.44;100.00
5062;BME280;2351;50.812;12.872;2023-09-19T07:13:36;97462.97;;;16.54;100.00
5062;BME280;2351;50.812;12.872;2023-09-19T07:16:08;97472.66;;;16.70;100.00
5062;BME280;2351;50.812;12.872;2023-09-19T07:18:49;97477.41;;;16.98;100.00
5062;BME280;2351;50.812;12.872;2023-09-19T07:21:21;97477.38;;;17.28;100.00
5062;BME280;2351;50.812;12.872;2023-09-19T07:23:55;97489.16;;;17.34;100.00
5062;BME280;2351;50.812;12.872;2023-09-19T07:26:26;97482.16;;;17.33;100.00
5062;BME280;2351;50.812;12.872;2023-09-19T07:28:58;97489.44;;;17.24;100.00
5062;BME280;2351;50.812;12.872;2023-09-19T07:31:30;97491.13;;;17.10;100.00
5062;BME280;2351;50.812;12.872;2023-09-19T07:34:02;97493.16;;;17.08;100.00
5062;BME280;2351;50.812;12.872;2023-09-19T07:36:35;97498.59;;;17.00;100.00
5062;BME280;2351;50.812;12.872;2023-09-19T07:39:09;97495.19;;;17.06;100.00
5062;BME280;2351;50.812;12.872;2023-09-19T07:41:41;97499.91;;;17.19;100.00
5062;BME280;2351;50.812;12.872;2023-09-19T07:44:13;97501.34;;;17.22;100.00
5062;BME280;2351;50.812;12.872;2023-09-19T07:46:44;97493.34;;;17.22;100.00
5062;BME280;2351;50.812;12.872;2023-09-19T07:49:16;97493.59;;;17.42;100.00
5062;BME280;2351;50.812;12.872;2023-09-19T07:51:49;97505.94;;;17.80;100.00
5062;BME280;2351;50.812;12.872;2023-09-19T07:54:24;97498.81;;;18.24;100.00
5062;BME280;2351;50.812;12.872;2023-09-19T07:56:57;97493.81;;;18.71;100.00
5062;BME280;2351;50.812;12.872;2023-09-19T07:59:30;97493.03;;;18.77;99.06
5062;BME280;2351;50.812;12.872;2023-09-19T08:02:01;97487.97;;;18.89;98.61
5062;BME280;2351;50.812;12.872;2023-09-19T08:04:35;97491.69;;;18.94;96.00
5062;BME280;2351;50.812;12.872;2023-09-19T08:07:06;97492.31;;;18.90;90.50
5062;BME280;2351;50.812;12.872;2023-09-19T08:09:41;97496.97;;;19.09;89.61
5062;BME280;2351;50.812;12.872;2023-09-19T08:12:16;97500.81;;;19.29;88.77
5062;BME280;2351;50.812;12.872;2023-09-19T08:14:50;97496.28;;;19.36;87.51
5062;BME280;2351;50.812;12.872;2023-09-19T08:17:21;97504.47;;;19.21;85.32
5062;BME280;2351;50.812;12.872;2023-09-19T08:19:54;97503.78;;;19.12;82.41
5062;BME280;2351;50.812;12.872;2023-09-19T08:22:25;97514.94;;;18.87;80.35
5062;BME280;2351;50.812;12.872;2023-09-19T08:24:59;97517.56;;;18.74;80.36
5062;BME280;2351;50.812;12.872;2023-09-19T08:27:35;97524.78;;;18.73;80.82
5062;BME280;2351;50.812;12.872;2023-09-19T08:30:07;97529.25;;;18.66;80.33
5062;BME280;2351;50.812;12.872;2023-09-19T08:32:42;97528.31;;;18.52;80.87
5062;BME280;2351;50.812;12.872;2023-09-19T08:35:14;97535.22;;;18.40;80.68
5062;BME280;2351;50.812;12.872;2023-09-19T08:37:45;97535.97;;;18.33;82.24
5062;BME280;2351;50.812;12.872;2023-09-19T08:40:18;97535.03;;;18.70;82.02
5062;BME280;2351;50.812;12.872;2023-09-19T08:42:51;97526.31;;;18.89;78.96
5062;BME280;2351;50.812;12.872;2023-09-19T08:45:24;97527.47;;;19.02;76.97
5062;BME280;2351;50.812;12.872;2023-09-19T08:48:06;97533.84;;;19.01;73.90
5062;BME280;2351;50.812;12.872;2023-09-19T08:50:43;97527.66;;;19.00;72.90
5062;BME280;2351;50.812;12.872;2023-09-19T08:53:26;97534.34;;;18.89;73.86
5062;BME280;2351;50.812;12.872;2023-09-19T08:56:01;97538.75;;;18.69;74.99
5062;BME280;2351;50.812;12.872;2023-09-19T08:58:40;97537.94;;;18.68;76.88
5062;BME280;2351;50.812;12.872;2023-09-19T09:01:15;97539.38;;;18.71;76.05
5062;BME280;2351;50.812;12.872;2023-09-19T09:03:48;97539.59;;;18.69;75.93
5062;BME280;2351;50.812;12.872;2023-09-19T09:06:21;97545.28;;;18.59;75.11
5062;BME280;2351;50.812;12.872;2023-09-19T09:08:53;97538.25;;;18.58;75.01
5062;BME280;2351;50.812;12.872;2023-09-19T09:11:26;97547.81;;;18.67;74.61
5062;BME280;2351;50.812;12.872;2023-09-19T09:13:59;97548.47;;;18.76;75.03
5062;BME280;2351;50.812;12.872;2023-09-19T09:16:31;97552.91;;;18.84;74.87
5062;BME280;2351;50.812;12.872;2023-09-19T09:19:02;97554.31;;;18.80;74.07
5062;BME280;2351;50.812;12.872;2023-09-19T09:21:34;97559.50;;;18.60;73.00
5062;BME280;2351;50.812;12.872;2023-09-19T09:24:27;97577.66;;;18.43;73.00
5062;BME280;2351;50.812;12.872;2023-09-19T09:27:03;97574.94;;;18.36;73.79
5062;BME280;2351;50.812;12.872;2023-09-19T09:29:42;97579.41;;;18.29;74.14
5062;BME280;2351;50.812;12.872;2023-09-19T09:32:22;97578.31;;;18.23;74.82
5062;BME280;2351;50.812;12.872;2023-09-19T09:34:55;97575.13;;;18.13;75.68
5062;BME280;2351;50.812;12.872;2023-09-19T09:37:28;97570.34;;;18.08;75.94
5062;BME280;2351;50.812;12.872;2023-09-19T09:40:02;97573.63;;;18.10;77.28
5062;BME280;2351;50.812;12.872;2023-09-19T09:42:51;97585.47;;;18.38;76.56
5062;BME280;2351;50.812;12.872;2023-09-19T09:45:28;97584.88;;;18.64;75.48
5062;BME280;2351;50.812;12.872;2023-09-19T09:48:07;97576.34;;;18.97;75.32
5062;BME280;2351;50.812;12.872;2023-09-19T09:50:47;97567.22;;;19.26;70.96
5062;BME280;2351;50.812;12.872;2023-09-19T09:53:27;97568.19;;;19.47;70.72
5062;BME280;2351;50.812;12.872;2023-09-19T09:56:03;97574.06;;;19.71;68.06
5062;BME280;2351;50.812;12.872;2023-09-19T09:58:49;97564.63;;;19.82;65.10
5062;BME280;2351;50.812;12.872;2023-09-19T12:16:51;97559.81;;;21.20;51.70
5062;BME280;2351;50.812;12.872;2023-09-19T12:19:25;97557.34;;;21.25;51.06
5062;BME280;2351;50.812;12.872;2023-09-19T12:21:58;97550.75;;;21.14;48.04
5062;BME280;2351;50.812;12.872;2023-09-19T12:24:34;97557.38;;;20.98;47.95
5062;BME280;2351;50.812;12.872;2023-09-19T12:27:08;97564.59;;;20.98;48.79
5062;BME280;2351;50.812;12.872;2023-09-19T12:29:43;97547.63;;;21.11;49.69
5062;BME280;2351;50.812;12.872;2023-09-19T12:32:17;97556.47;;;21.31;50.06
5062;BME280;2351;50.812;12.872;2023-09-19T12:34:51;97557.16;;;21.13;49.49
5062;BME280;2351;50.812;12.872;2023-09-19T12:37:24;97554.66;;;21.05;48.87
5062;BME280;2351;50.812;12.872;2023-09-19T12:40:05;97559.22;;;20.98;50.07
5062;BME280;2351;50.812;12.872;2023-09-19T12:42:48;97558.78;;;21.07;50.67
5062;BME280;2351;50.812;12.872;2023-09-19T12:45:20;97556.94;;;21.08;50.78
5062;BME280;2351;50.812;12.872;2023-09-19T12:48:24;97538.50;;;21.12;51.33
5062;BME280;2351;50.812;12.872;2023-09-19T12:51:03;97554.03;;;21.10;51.13
5062;BME280;2351;50.812;12.872;2023-09-19T12:53:37;97549.94;;;21.00;51.67
5062;BME280;2351;50.812;12.872;2023-09-19T12:56:11;97548.88;;;20.88;51.91
5062;BME280;2351;50.812;12.872;2023-09-19T12:58:54;97538.78;;;20.76;52.60
5062;BME280;2351;50.812;12.872;2023-09-19T13:01:27;97538.53;;;20.71;53.11
5062;BME280;2351;50.812;12.872;2023-09-19T13:04:13;97541.03;;;20.73;53.28
5062;BME280;2351;50.812;12.872;2023-09-19T13:06:49;97542.47;;;20.69;50.74
5062;BME280;2351;50.812;12.872;2023-09-19T13:09:22;97542.06;;;20.85;51.29
5062;BME280;2351;50.812;12.872;2023-09-19T13:12:02;97543.28;;;21.10;51.17
5062;BME280;2351;50.812;12.872;2023-09-19T13:14:34;97542.22;;;21.24;50.30
5062;BME280;2351;50.812;12.872;2023-09-19T13:17:10;97544.91;;;21.31;50.25
5062;BME280;2351;50.812;12.872;2023-09-19T13:19:49;97542.44;;;21.29;49.73
5062;BME280;2351;50.812;12.872;2023-09-19T13:22:37;97542.44;;;21.29;49.32
5062;BME280;2351;50.812;12.872;2023-09-19T13:25:12;97541.00;;;21.13;49.11
5062;BME280;2351;50.812;12.872;2023-09-19T13:27:46;97532.94;;;21.13;48.91
5062;BME280;2351;50.812;12.872;2023-09-19T13:30:23;97543.53;;;21.01;48.49
5062;BME280;2351;50.812;12.872;2023-09-19T13:33:04;97541.25;;;20.91;49.07
5062;BME280;2351;50.812;12.872;2023-09-19T13:35:39;97541.88;;;20.94;49.47
5062;BME280;2351;50.812;12.872;2023-09-19T13:38:11;97537.09;;;21.02;49.64
5062;BME280;2351;50.812;12.872;2023-09-19T13:40:43;97527.56;;;21.13;48.40
5062;BME280;2351;50.812;12.872;2023-09-19T13:43:15;97532.91;;;21.20;48.57
5062;BME280;2351;50.812;12.872;2023-09-19T13:45:46;97538.06;;;21.35;49.01
5062;BME280;2351;50.812;12.872;2023-09-19T13:48:18;97536.81;;;21.37;47.55
5062;BME280;2351;50.812;12.872;2023-09-19T13:50:54;97532.88;;;21.33;48.16
5062;BME280;2351;50.812;12.872;2023-09-19T13:53:26;97537.44;;;21.33;48.10
5062;BME280;2351;50.812;12.872;2023-09-19T13:55:57;97536.81;;;21.31;47.78
5062;BME280;2351;50.812;12.872;2023-09-19T13:58:29;97541.59;;;21.29;47.63
5062;BME280;2351;50.812;12.872;2023-09-19T14:01:03;97544.31;;;21.22;48.08
5062;BME280;2351;50.812;12.872;2023-09-19T14:03:35;97547.63;;;21.11;47.94
5062;BME280;2351;50.812;12.872;2023-09-19T14:06:08;97529.22;;;21.07;48.49
5062;BME280;2351;50.812;12.872;2023-09-19T14:08:41;97535.81;;;21.25;48.98
5062;BME280;2351;50.812;12.872;2023-09-19T14:11:13;97539.03;;;21.47;48.75
5062;BME280;2351;50.812;12.872;2023-09-19T14:13:46;97532.75;;;21.74;48.58
5062;BME280;2351;50.812;12.872;2023-09-19T14:16:19;97539.31;;;21.91;47.27
5062;BME280;2351;50.812;12.872;2023-09-19T14:18:52;97533.66;;;22.00;45.81
5062;BME280;2351;50.812;12.872;2023-09-19T14:21:26;97526.34;;;22.14;45.20
5062;BME280;2351;50.812;12.872;2023-09-19T14:23:57;97540.81;;;22.19;43.95
5062;BME280;2351;50.812;12.872;2023-09-19T14:26:29;97541.41;;;22.21;43.48
5062;BME280;2351;50.812;12.872;2023-09-19T14:29:01;97541.22;;;22.23;42.82
5062;BME280;2351;50.812;12.872;2023-09-19T14:31:33;97544.81;;;22.10;42.39
5062;BME280;2351;50.812;12.872;2023-09-19T14:34:05;97542.53;;;22.07;42.07
5062;BME280;2351;50.812;12.872;2023-09-19T14:36:39;97535.78;;;21.91;42.10
5062;BME280;2351;50.812;12.872;2023-09-19T14:39:10;97533.56;;;21.81;42.82
5062;BME280;2351;50.812;12.872;2023-09-19T14:41:42;97533.94;;;21.91;43.00
5062;BME280;2351;50.812;12.872;2023-09-19T14:44:14;97534.22;;;22.08;42.20
5062;BME280;2351;50.812;12.872;2023-09-19T14:46:46;97541.50;;;22.08;42.48
5062;BME280;2351;50.812;12.872;2023-09-19T14:49:18;97540.09;;;21.99;42.69
5062;BME280;2351;50.812;12.872;2023-09-19T14:51:51;97531.66;;;21.88;42.07
5062;BME280;2351;50.812;12.872;2023-09-19T14:54:22;97543.16;;;21.57;42.18
5062;BME280;2351;50.812;12.872;2023-09-19T14:56:54;97543.78;;;21.65;42.82
5062;BME280;2351;50.812;12.872;2023-09-19T14:59:34;97545.25;;;21.61;42.81
5062;BME280;2351;50.812;12.872;2023-09-19T15:02:07;97547.63;;;21.83;42.70
5062;BME280;2351;50.812;12.872;2023-09-19T15:04:39;97539.38;;;21.85;42.95
5062;BME280;2351;50.812;12.872;2023-09-19T15:07:12;97534.09;;;21.96;42.50
5062;BME280;2351;50.812;12.872;2023-09-19T15:09:45;97527.66;;;21.97;41.92
5062;BME280;2351;50.812;12.872;2023-09-19T15:12:17;97526.66;;;21.92;42.43
5062;BME280;2351;50.812;12.872;2023-09-19T15:14:49;97533.94;;;21.91;41.78
5062;BME280;2351;50.812;12.872;2023-09-19T15:17:20;97535.59;;;21.92;41.74
5062;BME280;2351;50.812;12.872;2023-09-19T15:19:55;97538.97;;;21.74;41.03
5062;BME280;2351;50.812;12.872;2023-09-19T15:22:29;97531.63;;;21.43;41.72
5062;BME280;2351;50.812;12.872;2023-09-19T15:25:00;97533.31;;;21.37;42.11
5062;BME280;2351;50.812;12.872;2023-09-19T15:27:34;97534.13;;;21.37;42.54
5062;BME280;2351;50.812;12.872;2023-09-19T15:30:08;97532.88;;;21.40;41.51
5062;BME280;2351;50.812;12.872;2023-09-19T15:32:41;97538.25;;;21.33;41.50
5062;BME280;2351;50.812;12.872;2023-09-19T15:35:13;97532.50;;;21.23;40.33
5062;BME280;2351;50.812;12.872;2023-09-19T15:37:48;97527.75;;;21.25;39.32
5062;BME280;2351;50.812;12.872;2023-09-19T15:40:20;97528.75;;;21.31;39.25
5062;BME280;2351;50.812;12.872;2023-09-19T15:42:54;97530.19;;;21.33;39.96
5062;BME280;2351;50.812;12.872;2023-09-19T15:45:26;97530.59;;;21.30;40.01
5062;BME280;2351;50.812;12.872;2023-09-19T15:47:58;97536.44;;;21.27;39.95
5062;BME280;2351;50.812;12.872;2023-09-19T15:50:30;97535.22;;;21.10;39.54
5062;BME280;2351;50.812;12.872;2023-09-19T15:53:03;97544.97;;;20.97;39.47
5062;BME280;2351;50.812;12.872;2023-09-19T15:55:38;97537.50;;;20.72;39.87
5062;BME280;2351;50.812;12.872;2023-09-19T15:58:11;97532.97;;;20.53;40.64
5062;BME280;2351;50.812;12.872;2023-09-19T16:00:43;97542.69;;;20.40;40.92